ADDS METAR Data INFO
IDs: Format: Raw Decoded Include TAF

Data at: 0159 UTC 17 Oct 2017

KJMR 170157Z AUTO 00000KT 10SM CLR 10/03 A2994 RMK AO2
KJMR 170138Z AUTO 17003KT 10SM CLR 10/02 A2994 RMK AO2
KJMR 170117Z AUTO 17004KT 10SM CLR 10/02 A2995 RMK AO2
KJMR 170057Z AUTO 17004KT 10SM CLR 12/03 A2996 RMK AO2
KJMR 170038Z AUTO 17004KT 10SM CLR 12/02 A2997 RMK AO2
KJMR 170017Z AUTO 16004KT 10SM CLR 12/02 A2997 RMK AO2
KJMR 162357Z AUTO 17004KT 10SM CLR 13/03 A2997 RMK AO2
KJMR 162338Z AUTO 18006KT 10SM CLR 13/02 A2997 RMK AO2
KJMR 162317Z AUTO 18006KT 10SM CLR 13/02 A2997 RMK AO2
KJMR 162257Z AUTO 19008KT 10SM CLR 14/02 A2998 RMK AO2
KJMR 162237Z AUTO 19008KT 10SM CLR 15/02 A2999 RMK AO2
KJMR 162217Z AUTO 20008KT 10SM CLR 15/02 A3000 RMK AO2
KJMR 162157Z AUTO 20010G15KT 10SM CLR 15/01 A3001 RMK AO2
KJMR 162137Z AUTO 20012G15KT 10SM CLR 16/02 A3002 RMK AO2
KJMR 162117Z AUTO 22011KT 10SM CLR 15/02 A3002 RMK AO2
KJMR 162057Z AUTO 21013KT 10SM CLR 15/01 A3004 RMK AO2
KJMR 162037Z AUTO 21011G14KT 10SM CLR 15/01 A3005 RMK AO2
KJMR 162018Z AUTO 22012G16KT 10SM CLR 15/01 A3006 RMK AO2
KJMR 161957Z AUTO 22009KT 10SM CLR 15/01 A3007 RMK AO2
KJMR 161937Z AUTO 22009G16KT 10SM CLR 15/01 A3007 RMK AO2
KJMR 161918Z AUTO 23010KT 10SM CLR 15/01 A3009 RMK AO2
KJMR 161857Z AUTO 20013KT 10SM CLR 14/01 A3010 RMK AO2
KJMR 161837Z AUTO 22009KT 10SM CLR 14/01 A3012 RMK AO2
KJMR 161817Z AUTO 20010KT 10SM CLR 13/01 A3013 RMK AO2
KJMR 161757Z AUTO 22009KT 10SM CLR 13/02 A3014 RMK AO2
KJMR 161738Z AUTO 21010G15KT 10SM CLR 13/02 A3015 RMK AO2
KJMR 161717Z AUTO 24009KT 10SM CLR 12/02 A3016 RMK AO2
KJMR 161657Z AUTO 23007KT 200V260 10SM CLR 12/03 A3017 RMK AO2
KJMR 161637Z AUTO 24006KT 10SM CLR 10/02 A3018 RMK AO2
KJMR 161617Z AUTO 24006KT 10SM CLR 10/03 A3018 RMK AO2
KJMR 161557Z AUTO 23006KT 10SM CLR 09/03 A3019 RMK AO2
KJMR 161538Z AUTO 23004KT 10SM CLR 08/03 A3019 RMK AO2
KJMR 161517Z AUTO 22005KT 10SM CLR 07/04 A3019 RMK AO2
KJMR 161457Z AUTO 23003KT 10SM CLR 06/03 A3019 RMK AO2
KJMR 161437Z AUTO 22004KT 10SM CLR 04/03 A3019 RMK AO2
KJMR 161417Z AUTO 22003KT 10SM CLR 03/03 A3019 RMK AO2
KJMR 161357Z AUTO 22004KT 10SM CLR 02/02 A3019 RMK AO2
KJMR 161337Z AUTO 00000KT 10SM CLR 01/00 A3019 RMK AO2
KJMR 161316Z AUTO 00000KT 7SM CLR 00/00 A3020 RMK AO2
KJMR 161257Z AUTO 00000KT 2SM BR CLR 00/00 A3020 RMK AO2
KJMR 161237Z AUTO 00000KT 10SM CLR 00/00 A3020 RMK AO2
KJMR 161217Z AUTO 00000KT 7SM CLR 00/00 A3021 RMK AO2
KJMR 161157Z AUTO 00000KT 5SM BR CLR 00/00 A3021 RMK AO2
KJMR 161137Z AUTO 00000KT 5SM BR CLR 00/00 A3020 RMK AO2
KJMR 161117Z AUTO 00000KT 7SM CLR 00/00 A3021 RMK AO2
KJMR 161057Z AUTO 00000KT 7SM CLR 00/00 A3020 RMK AO2
KJMR 161037Z AUTO 00000KT 5SM BR CLR 00/00 A3020 RMK AO2
KJMR 161017Z AUTO 00000KT 5SM BR CLR 00/00 A3020 RMK AO2
KJMR 160957Z AUTO 00000KT 5SM BR CLR 00/00 A3020 RMK AO2
KJMR 160937Z AUTO 00000KT 10SM CLR 00/00 A3020 RMK AO2
KJMR 160917Z AUTO 00000KT 7SM CLR 00/00 A3021 RMK AO2
KJMR 160857Z AUTO 00000KT 5SM BR CLR 00/00 A3020 RMK AO2
KJMR 160836Z AUTO 00000KT 7SM SCT060 00/00 A3021 RMK AO2
KJMR 160817Z AUTO 00000KT 4SM BR SCT060 01/00 A3021 RMK AO2
KJMR 160757Z AUTO 00000KT 7SM CLR 01/00 A3021 RMK AO2
KJMR 160736Z AUTO 00000KT 10SM CLR 01/00 A3021 RMK AO2
KJMR 160717Z AUTO 00000KT 7SM CLR 01/00 A3021 RMK AO2
KJMR 160657Z AUTO 00000KT 5SM BR CLR 01/00 A3020 RMK AO2
KJMR 160637Z AUTO 00000KT 10SM CLR 01/00 A3020 RMK AO2
KJMR 160617Z AUTO 00000KT 10SM CLR 02/01 A3020 RMK AO2
KJMR 160557Z AUTO 00000KT 10SM CLR 02/01 A3020 RMK AO2
KJMR 160537Z AUTO 27003KT 10SM CLR 03/01 A3020 RMK AO2
KJMR 160517Z AUTO 00000KT 10SM CLR 03/01 A3019 RMK AO2
KJMR 160457Z AUTO 26003KT 10SM CLR 03/01 A3019 RMK AO2
KJMR 160437Z AUTO 25003KT 10SM SCT100 04/01 A3019 RMK AO2
KJMR 160417Z AUTO 23003KT 10SM BKN100 04/02 A3020 RMK AO2
KJMR 160357Z AUTO 00000KT 10SM SCT100 03/01 A3020 RMK AO2
KJMR 160337Z AUTO 00000KT 10SM SCT100 03/02 A3020 RMK AO2
KJMR 160317Z AUTO 00000KT 10SM SCT110 03/02 A3019 RMK AO2
KJMR 160257Z AUTO 00000KT 10SM SCT110 03/02 A3019 RMK AO2
KJMR 160237Z AUTO 00000KT 10SM SCT070 SCT110 03/02 A3019 RMK AO2
KJMR 160217Z AUTO 00000KT 10SM SCT110 03/02 A3019 RMK AO2
KJMR 160157Z AUTO 00000KT 10SM SCT110 03/01 A3019 RMK AO2
KJMR 160138Z AUTO 00000KT 10SM SCT110 03/01 A3019 RMK AO2
KJMR 160117Z AUTO 00000KT 10SM SCT100 03/01 A3019 RMK AO2
KJMR 160057Z AUTO 00000KT 10SM SCT100 04/01 A3019 RMK AO2
KJMR 160038Z AUTO 00000KT 10SM CLR 05/01 A3019 RMK AO2
KJMR 160018Z AUTO 00000KT 10SM SCT100 06/01 A3019 RMK AO2
KJMR 152357Z AUTO 23003KT 10SM SCT060 SCT075 SCT100 06/01 A3019 RMK AO2
KJMR 152337Z AUTO 24004KT 10SM SCT044 SCT050 OVC060 07/02 A3018 RMK AO2
KJMR 152317Z AUTO 00000KT 10SM OVC050 07/02 A3018 RMK AO2
KJMR 152257Z AUTO 26003KT 10SM OVC050 07/02 A3018 RMK AO2
KJMR 152238Z AUTO 26006KT 10SM -DZ SCT027 SCT050 BKN070 07/01 A3018 RMK AO2
KJMR 152217Z AUTO 27006KT 10SM SCT050 SCT060 SCT075 07/00 A3018 RMK AO2
KJMR 152157Z AUTO 26011G17KT 10SM SCT045 SCT065 SCT075 07/00 A3017 RMK AO2
KJMR 152137Z AUTO 26011G18KT 10SM SCT047 SCT050 SCT065 08/00 A3017 RMK AO2
KJMR 152117Z AUTO 26009KT 10SM CLR 09/00 A3017 RMK AO2
KJMR 152057Z AUTO 26009KT 10SM CLR 09/M01 A3017 RMK AO2
KJMR 152037Z AUTO 26009KT 10SM CLR 10/00 A3016 RMK AO2
KJMR 152017Z AUTO 28008KT 10SM CLR 09/M01 A3016 RMK AO2
KJMR 151957Z AUTO 29007G14KT 10SM CLR 10/00 A3016 RMK AO2
KJMR 151937Z AUTO 27009KT 10SM CLR 10/00 A3016 RMK AO2
KJMR 151917Z AUTO 26005KT 10SM CLR 09/00 A3016 RMK AO2
KJMR 151857Z AUTO 25007KT 10SM CLR 09/01 A3017 RMK AO2
KJMR 151837Z AUTO 30008KT 10SM CLR 09/00 A3017 RMK AO2
KJMR 151817Z AUTO 29008KT 10SM CLR 09/00 A3017 RMK AO2
KJMR 151757Z AUTO 27012G17KT 10SM SCT036 09/01 A3017 RMK AO2
KJMR 151737Z AUTO 29009KT 10SM SCT034 10/02 A3017 RMK AO2
KJMR 151717Z AUTO 28009KT 10SM SCT029 10/02 A3017 RMK AO2
KJMR 151657Z AUTO 28007KT 10SM BKN025 BKN032 09/03 A3016 RMK AO2
KJMR 151637Z AUTO 27006KT 10SM BKN027 08/03 A3016 RMK AO2
KJMR 151617Z AUTO 30005KT 10SM SCT021 SCT027 SCT032 07/03 A3016 RMK AO2
KJMR 151557Z AUTO 34007KT 10SM SCT020 08/02 A3015 RMK AO2
KJMR 151537Z AUTO 33007KT 10SM SCT018 07/03 A3015 RMK AO2
KJMR 151517Z AUTO 32007KT 10SM SCT016 07/03 A3014 RMK AO2
KJMR 151457Z AUTO 31008KT 10SM SCT014 07/04 A3014 RMK AO2
KJMR 151437Z AUTO 31006KT 10SM CLR 07/05 A3014 RMK AO2
KJMR 151417Z AUTO 30007KT 10SM CLR 06/03 A3014 RMK AO2